createdAt,value
2022-09-15T00:00:08.129Z,18.82
2022-09-15T00:01:08.518Z,18.81
2022-09-15T00:02:08.573Z,18.69
2022-09-15T00:03:08.350Z,18.7
2022-09-15T00:04:11.233Z,18.8
2022-09-15T00:05:08.161Z,18.77
2022-09-15T00:06:08.504Z,18.58
2022-09-15T00:07:08.274Z,18.57
2022-09-15T00:08:08.195Z,18.8
2022-09-15T00:09:08.247Z,18.83
2022-09-15T00:10:08.169Z,18.86
2022-09-15T00:11:08.514Z,18.81
2022-09-15T00:12:08.177Z,18.52
2022-09-15T00:13:08.086Z,18.46
2022-09-15T00:14:08.068Z,18.41
2022-09-15T00:15:11.108Z,18.47
2022-09-15T00:16:08.519Z,18.53
2022-09-15T00:17:08.493Z,18.49
2022-09-15T00:18:08.125Z,18.48
2022-09-15T00:19:08.081Z,18.48
2022-09-15T00:20:08.187Z,18.55
2022-09-15T00:21:08.433Z,18.5
2022-09-15T00:22:08.195Z,18.51
2022-09-15T00:23:08.207Z,18.52
2022-09-15T00:24:08.219Z,18.51
2022-09-15T00:25:08.266Z,18.49
2022-09-15T00:26:14.093Z,18.72
2022-09-15T00:27:08.160Z,18.68
2022-09-15T00:28:08.189Z,18.63
2022-09-15T00:29:08.241Z,18.56
2022-09-15T00:30:08.090Z,18.73
2022-09-15T00:31:08.572Z,18.57
2022-09-15T00:32:08.432Z,18.46
2022-09-15T00:33:08.060Z,18.38
2022-09-15T00:34:08.160Z,18.35
2022-09-15T00:35:08.217Z,18.27
2022-09-15T00:36:08.440Z,18.37
2022-09-15T00:37:11.122Z,18.52
2022-09-15T00:38:08.168Z,18.51
2022-09-15T00:39:08.075Z,18.51
2022-09-15T00:40:08.157Z,18.5
2022-09-15T00:41:08.543Z,18.53
2022-09-15T00:42:08.150Z,18.58
2022-09-15T00:43:08.214Z,18.52
2022-09-15T00:44:08.216Z,18.48
2022-09-15T00:45:08.237Z,18.53
2022-09-15T00:46:08.579Z,18.52
2022-09-15T00:47:19.391Z,18.36
2022-09-15T00:48:11.168Z,18.37
2022-09-15T00:49:08.159Z,18.56
2022-09-15T00:50:08.089Z,18.6
2022-09-15T00:51:08.507Z,18.46
2022-09-15T00:52:08.250Z,18.47
2022-09-15T00:53:08.156Z,18.56
2022-09-15T00:54:08.093Z,18.51
2022-09-15T00:55:08.226Z,18.68
2022-09-15T00:56:08.458Z,18.75
2022-09-15T00:57:08.121Z,18.62
2022-09-15T00:58:08.129Z,18.68
2022-09-15T00:59:11.073Z,18.81
2022-09-15T01:00:08.180Z,18.89
2022-09-15T01:01:08.609Z,18.92
2022-09-15T01:02:08.511Z,18.95
2022-09-15T01:03:08.276Z,18.95
2022-09-15T01:04:08.267Z,18.95
2022-09-15T01:05:08.070Z,18.77
2022-09-15T01:06:08.507Z,18.53
2022-09-15T01:07:08.172Z,18.37
2022-09-15T01:08:08.055Z,18.25
2022-09-15T01:09:08.072Z,18.17
2022-09-15T01:10:11.093Z,18.13
2022-09-15T01:11:08.522Z,18.14
2022-09-15T01:12:08.286Z,18.11
2022-09-15T01:13:08.232Z,18.15
2022-09-15T01:14:08.273Z,18.13
2022-09-15T01:15:08.205Z,18.09
2022-09-15T01:16:08.467Z,18.12
2022-09-15T01:17:08.509Z,18.03
2022-09-15T01:18:08.224Z,17.94
2022-09-15T01:19:08.196Z,17.97
2022-09-15T01:20:08.148Z,17.93
2022-09-15T01:21:14.154Z,17.96
2022-09-15T01:22:08.165Z,17.93
2022-09-15T01:23:08.178Z,17.85
2022-09-15T01:24:08.167Z,17.89
2022-09-15T01:25:08.186Z,17.96
2022-09-15T01:26:08.508Z,18.03
2022-09-15T01:27:30.450Z,17.99
2022-09-15T01:28:08.178Z,18.06
2022-09-15T01:29:08.059Z,18.1
2022-09-15T01:30:08.070Z,18.2
2022-09-15T01:31:08.509Z,18.1
2022-09-15T01:32:14.092Z,18.08
2022-09-15T01:33:08.141Z,18.07
2022-09-15T01:34:08.079Z,18.01
2022-09-15T01:35:08.176Z,18.03
2022-09-15T01:36:08.437Z,17.99
2022-09-15T01:37:08.209Z,17.91
2022-09-15T01:38:08.183Z,17.86
2022-09-15T01:39:08.169Z,17.87
2022-09-15T01:40:08.390Z,17.84
2022-09-15T01:41:08.508Z,17.81
2022-09-15T01:42:08.153Z,17.83
2022-09-15T01:43:11.080Z,17.78
2022-09-15T01:44:08.285Z,17.78
2022-09-15T01:45:08.235Z,17.77
2022-09-15T01:46:08.582Z,17.77
2022-09-15T01:47:08.432Z,17.9
2022-09-15T01:48:08.275Z,17.83
2022-09-15T01:49:08.087Z,17.79
2022-09-15T01:50:08.168Z,17.74
2022-09-15T01:51:08.511Z,17.68
2022-09-15T01:52:08.290Z,17.64
2022-09-15T01:53:08.152Z,17.58
2022-09-15T01:54:11.100Z,17.55
2022-09-15T01:55:08.144Z,17.44
2022-09-15T01:56:08.510Z,17.32
2022-09-15T01:57:08.255Z,17.3
2022-09-15T01:58:08.220Z,17.25
2022-09-15T01:59:08.284Z,17.27
2022-09-15T02:00:08.216Z,17.25
2022-09-15T02:01:08.579Z,17.18
2022-09-15T02:02:08.524Z,17.07
2022-09-15T02:03:08.204Z,17.12
2022-09-15T02:04:08.068Z,17.19
2022-09-15T02:05:11.218Z,17.19
2022-09-15T02:06:08.440Z,17.17
2022-09-15T02:07:08.251Z,17.14
2022-09-15T02:08:08.181Z,17.24
2022-09-15T02:09:08.256Z,17.26
2022-09-15T02:10:08.123Z,17.22
2022-09-15T02:11:08.431Z,17.17
2022-09-15T02:12:08.081Z,17.17
2022-09-15T02:13:08.139Z,17.2
2022-09-15T02:14:08.068Z,17.24
2022-09-15T02:15:08.051Z,17.17
2022-09-15T02:16:14.163Z,17.18
2022-09-15T02:17:08.430Z,17.21
2022-09-15T02:18:08.157Z,17.23
2022-09-15T02:19:08.080Z,17.15
2022-09-15T02:20:08.064Z,17.1
2022-09-15T02:21:08.504Z,17.07
2022-09-15T02:22:08.147Z,17.03
2022-09-15T02:23:08.172Z,17.01
2022-09-15T02:24:08.293Z,16.96
2022-09-15T02:25:08.273Z,16.93
2022-09-15T02:26:08.542Z,16.82
2022-09-15T02:27:11.068Z,16.9
2022-09-15T02:28:08.176Z,17.1
2022-09-15T02:29:08.147Z,16.93
2022-09-15T02:30:08.208Z,16.87
2022-09-15T02:31:08.487Z,16.94
2022-09-15T02:32:08.477Z,16.94
2022-09-15T02:33:08.141Z,16.95
2022-09-15T02:34:08.207Z,16.96
2022-09-15T02:35:08.145Z,16.86
2022-09-15T02:36:08.517Z,16.72
2022-09-15T02:37:08.257Z,16.69
2022-09-15T02:38:11.101Z,16.77
2022-09-15T02:39:08.145Z,16.77
2022-09-15T02:40:08.122Z,16.78
2022-09-15T02:41:08.515Z,16.75
2022-09-15T02:42:08.269Z,16.75
2022-09-15T02:43:08.272Z,16.63
2022-09-15T02:44:08.162Z,16.56
2022-09-15T02:45:08.214Z,16.53
2022-09-15T02:46:08.513Z,16.52
2022-09-15T02:47:08.433Z,16.47
2022-09-15T02:48:08.257Z,16.46
2022-09-15T02:49:11.162Z,16.45
2022-09-15T02:50:08.230Z,16.44
2022-09-15T02:51:08.612Z,16.42
2022-09-15T02:52:08.276Z,16.3
2022-09-15T02:53:08.088Z,16.21
2022-09-15T02:54:08.062Z,16.15
2022-09-15T02:55:08.210Z,16.07
2022-09-15T02:56:08.441Z,16.05
2022-09-15T02:57:08.159Z,15.97
2022-09-15T02:58:08.091Z,16.01
2022-09-15T02:59:08.057Z,16.09
2022-09-15T03:00:11.119Z,16.07
2022-09-15T03:01:08.497Z,16.18
2022-09-15T03:02:08.463Z,16.17
2022-09-15T03:03:08.267Z,16.26
2022-09-15T03:04:08.293Z,16.37
2022-09-15T03:05:08.252Z,16.46
2022-09-15T03:06:08.422Z,16.46
2022-09-15T03:07:08.220Z,16.32
2022-09-15T03:08:08.177Z,16.36
2022-09-15T03:09:08.043Z,16.39
2022-09-15T03:10:08.123Z,16.33
2022-09-15T03:11:14.319Z,16.34
2022-09-15T03:12:08.149Z,16.4
2022-09-15T03:13:08.076Z,16.45
2022-09-15T03:14:08.060Z,16.47
2022-09-15T03:15:08.079Z,16.4
2022-09-15T03:16:08.544Z,16.35
2022-09-15T03:17:08.432Z,16.37
2022-09-15T03:18:08.075Z,16.46
2022-09-15T03:19:08.191Z,16.54
2022-09-15T03:20:08.270Z,16.58
2022-09-15T03:21:08.432Z,16.54
2022-09-15T03:22:11.213Z,16.59
2022-09-15T03:23:08.263Z,16.64
2022-09-15T03:24:08.136Z,16.67
2022-09-15T03:25:08.186Z,16.65
2022-09-15T03:26:08.509Z,16.6
2022-09-15T03:27:08.156Z,16.6
2022-09-15T03:28:08.213Z,16.6
2022-09-15T03:29:08.197Z,16.54
2022-09-15T03:30:08.266Z,16.61
2022-09-15T03:31:08.487Z,16.67
2022-09-15T03:32:08.280Z,16.7
2022-09-15T03:33:11.179Z,16.5
2022-09-15T03:34:08.228Z,16.3
2022-09-15T03:35:08.180Z,16.24
2022-09-15T03:36:08.440Z,16.27
2022-09-15T03:37:08.159Z,16.27
2022-09-15T03:38:08.068Z,16.2
2022-09-15T03:39:08.066Z,16.12
2022-09-15T03:40:08.153Z,16.13
2022-09-15T03:41:08.607Z,16.08
2022-09-15T03:42:08.286Z,16.04
2022-09-15T03:43:08.237Z,16.07
2022-09-15T03:44:11.107Z,16.03
2022-09-15T03:45:08.182Z,15.99
2022-09-15T03:46:08.581Z,15.98
2022-09-15T03:47:09.158Z,15.89
2022-09-15T03:48:08.207Z,15.91
2022-09-15T03:49:08.068Z,15.97
2022-09-15T03:50:08.160Z,15.99
2022-09-15T03:51:08.522Z,16.1
2022-09-15T03:52:08.181Z,16.12
2022-09-15T03:53:08.521Z,16.14
2022-09-15T03:54:08.286Z,16.15
2022-09-15T03:55:11.109Z,16.17
2022-09-15T03:56:08.263Z,16.16
2022-09-15T03:57:08.149Z,16.14
2022-09-15T03:58:08.513Z,16.07
2022-09-15T03:59:08.142Z,16.03
2022-09-15T04:00:08.062Z,16.05
2022-09-15T04:01:08.093Z,16.12
2022-09-15T04:02:08.535Z,16.16
2022-09-15T04:03:08.445Z,16.11
2022-09-15T04:04:08.145Z,16.18
2022-09-15T04:05:08.076Z,16.16
2022-09-15T04:06:11.109Z,16.02
2022-09-15T04:07:08.293Z,16.01
2022-09-15T04:08:08.448Z,16.03
2022-09-15T04:09:08.147Z,16.06
2022-09-15T04:10:08.171Z,16.06
2022-09-15T04:11:08.167Z,16.12
2022-09-15T04:12:08.067Z,16.17
2022-09-15T04:13:08.519Z,16.16
2022-09-15T04:14:08.177Z,16.09
2022-09-15T04:15:08.521Z,16.04
2022-09-15T04:16:08.372Z,16
2022-09-15T04:17:11.234Z,15.98
2022-09-15T04:18:08.443Z,15.96
2022-09-15T04:19:08.228Z,15.93
2022-09-15T04:20:08.083Z,15.92
2022-09-15T04:21:08.244Z,15.9
2022-09-15T04:22:08.163Z,15.83
2022-09-15T04:23:08.440Z,15.77
2022-09-15T04:24:08.074Z,15.84
2022-09-15T04:25:08.054Z,15.81
2022-09-15T04:26:08.088Z,15.79
2022-09-15T04:27:08.229Z,15.78
2022-09-15T04:28:14.129Z,15.8
2022-09-15T04:29:08.234Z,15.78
2022-09-15T04:30:08.520Z,15.62
2022-09-15T04:31:08.389Z,15.45
2022-09-15T04:32:08.129Z,15.38
2022-09-15T04:33:08.622Z,15.38
2022-09-15T04:34:08.162Z,15.54
2022-09-15T04:35:08.076Z,15.62
2022-09-15T04:36:08.178Z,15.62
2022-09-15T04:37:08.139Z,15.66
2022-09-15T04:38:08.152Z,15.62
2022-09-15T04:39:11.189Z,15.63
2022-09-15T04:40:08.303Z,15.65
2022-09-15T04:41:08.068Z,15.6
2022-09-15T04:42:08.071Z,15.6
2022-09-15T04:43:08.519Z,15.67
2022-09-15T04:44:08.149Z,15.63
2022-09-15T04:45:08.457Z,15.65
2022-09-15T04:46:08.336Z,15.66
2022-09-15T04:47:08.082Z,15.64
2022-09-15T04:48:08.516Z,15.56
2022-09-15T04:49:08.122Z,15.48
2022-09-15T04:50:11.106Z,15.62
2022-09-15T04:51:08.191Z,15.63
2022-09-15T04:52:09.853Z,15.65
2022-09-15T04:53:08.523Z,15.64
2022-09-15T04:54:08.272Z,15.61
2022-09-15T04:55:08.286Z,15.61
2022-09-15T04:56:08.068Z,15.5
2022-09-15T04:57:08.113Z,15.44
2022-09-15T04:58:08.517Z,15.44
2022-09-15T04:59:08.161Z,15.46
2022-09-15T05:00:08.520Z,15.43
2022-09-15T05:01:11.262Z,15.48
2022-09-15T05:02:08.323Z,15.31
2022-09-15T05:03:08.448Z,15.42
2022-09-15T05:04:08.266Z,15.47
2022-09-15T05:05:08.257Z,15.53
2022-09-15T05:06:08.240Z,15.55
2022-09-15T05:07:08.154Z,15.57
2022-09-15T05:08:08.515Z,15.5
2022-09-15T05:09:10.456Z,15.51
2022-09-15T05:10:08.137Z,15.6
2022-09-15T05:11:08.056Z,15.61
2022-09-15T05:12:11.254Z,15.6
2022-09-15T05:13:08.447Z,15.58
2022-09-15T05:14:08.243Z,15.61
2022-09-15T05:15:08.522Z,15.59
2022-09-15T05:16:08.253Z,15.55
2022-09-15T05:17:08.073Z,15.46
2022-09-15T05:18:08.446Z,15.47
2022-09-15T05:19:08.088Z,15.46
2022-09-15T05:20:08.061Z,15.45
2022-09-15T05:21:08.173Z,15.44
2022-09-15T05:22:08.174Z,15.42
2022-09-15T05:23:14.107Z,15.45
2022-09-15T05:24:08.140Z,15.52
2022-09-15T05:25:08.218Z,15.57
2022-09-15T05:26:08.174Z,15.67
2022-09-15T05:27:08.078Z,15.6
2022-09-15T05:28:08.510Z,15.49
2022-09-15T05:29:08.065Z,15.42
2022-09-15T05:30:35.997Z,15.36
2022-09-15T05:31:08.188Z,15.34
2022-09-15T05:32:08.069Z,15.39
2022-09-15T05:33:08.579Z,15.38
2022-09-15T05:34:11.189Z,15.44
2022-09-15T05:35:08.172Z,15.42
2022-09-15T05:36:08.187Z,15.38
2022-09-15T05:37:08.188Z,15.61
2022-09-15T05:38:08.449Z,15.96
2022-09-15T05:39:08.171Z,15.99
2022-09-15T05:40:08.632Z,15.95
2022-09-15T05:41:08.071Z,15.97
2022-09-15T05:42:08.148Z,15.99
2022-09-15T05:43:08.520Z,15.99
2022-09-15T05:44:08.146Z,16.08
2022-09-15T05:45:11.246Z,16.11
2022-09-15T05:46:08.340Z,16.08
2022-09-15T05:47:08.244Z,16.1
2022-09-15T05:48:08.517Z,16.14
2022-09-15T05:49:08.266Z,16.11
2022-09-15T05:50:08.164Z,16.18
2022-09-15T05:51:08.204Z,16.1
2022-09-15T05:52:08.064Z,16.2
2022-09-15T05:53:08.515Z,16.33
2022-09-15T05:54:08.274Z,16.38
2022-09-15T05:55:08.154Z,16.41
2022-09-15T05:56:11.187Z,16.47
2022-09-15T05:57:08.256Z,16.5
2022-09-15T05:58:08.525Z,16.51
2022-09-15T05:59:08.262Z,16.44
2022-09-15T06:00:08.452Z,16.46
2022-09-15T06:01:08.248Z,16.54
2022-09-15T06:02:08.196Z,16.64
2022-09-15T06:03:08.599Z,16.6
2022-09-15T06:04:08.253Z,16.52
2022-09-15T06:05:08.184Z,16.51
2022-09-15T06:06:08.232Z,16.54
2022-09-15T06:07:11.203Z,16.59
2022-09-15T06:08:08.451Z,16.63
2022-09-15T06:09:08.564Z,16.62
2022-09-15T06:10:08.274Z,16.67
2022-09-15T06:11:08.279Z,16.57
2022-09-15T06:12:08.127Z,16.5
2022-09-15T06:13:08.220Z,16.41
2022-09-15T06:14:08.147Z,16.44
2022-09-15T06:15:08.178Z,16.42
2022-09-15T06:16:08.221Z,16.32
2022-09-15T06:17:08.078Z,16.19
2022-09-15T06:18:14.108Z,16.15
2022-09-15T06:19:08.136Z,16.22
2022-09-15T06:20:08.188Z,16.2
2022-09-15T06:21:08.244Z,16.21
2022-09-15T06:22:08.074Z,16.2
2022-09-15T06:23:08.523Z,16.14
2022-09-15T06:24:08.178Z,16.18
2022-09-15T06:25:08.073Z,16.22
2022-09-15T06:26:08.092Z,16.28
2022-09-15T06:27:08.081Z,16.2
2022-09-15T06:28:08.521Z,16.16
2022-09-15T06:29:11.091Z,16.14
2022-09-15T06:30:08.447Z,16.09
2022-09-15T06:31:08.273Z,16.1
2022-09-15T06:32:08.324Z,16.09
2022-09-15T06:33:08.445Z,16.29
2022-09-15T06:34:08.225Z,16.15
2022-09-15T06:35:08.159Z,16.19
2022-09-15T06:36:08.080Z,16.41
2022-09-15T06:37:08.076Z,16.49
2022-09-15T06:38:08.517Z,16.48
2022-09-15T06:39:08.148Z,16.39
2022-09-15T06:40:11.176Z,16.27
2022-09-15T06:41:08.146Z,16.3
2022-09-15T06:42:09.553Z,16.23
2022-09-15T06:43:08.535Z,16.11
2022-09-15T06:44:08.194Z,15.9
2022-09-15T06:45:08.181Z,15.86
2022-09-15T06:46:08.301Z,15.83
2022-09-15T06:47:08.216Z,15.91
2022-09-15T06:48:23.936Z,16.04
2022-09-15T06:49:08.213Z,16.02
2022-09-15T06:50:08.074Z,15.97
2022-09-15T06:51:11.167Z,15.92
2022-09-15T06:52:08.232Z,15.89
2022-09-15T06:53:08.518Z,15.99
2022-09-15T06:54:08.230Z,16.02
2022-09-15T06:55:08.180Z,16.05
2022-09-15T06:56:08.078Z,16.27
2022-09-15T06:57:08.066Z,16.4
2022-09-15T06:58:08.523Z,16.34
2022-09-15T06:59:08.152Z,16.2
2022-09-15T07:00:08.516Z,16.02
2022-09-15T07:01:08.213Z,16
2022-09-15T07:02:11.261Z,16.06
2022-09-15T07:03:08.463Z,16.04
2022-09-15T07:04:08.063Z,16.06
2022-09-15T07:05:08.195Z,16.09
2022-09-15T07:06:08.191Z,16.06
2022-09-15T07:07:08.535Z,16.06
2022-09-15T07:08:08.214Z,15.95
2022-09-15T07:09:08.186Z,16
2022-09-15T07:10:08.287Z,16.17
2022-09-15T07:11:08.173Z,16.24
2022-09-15T07:12:08.536Z,16.15
2022-09-15T07:13:11.190Z,16.18
2022-09-15T07:14:08.205Z,16.37
2022-09-15T07:15:08.450Z,16.59
2022-09-15T07:16:08.269Z,16.86
2022-09-15T07:17:08.512Z,17.07
2022-09-15T07:18:08.183Z,17.15
2022-09-15T07:19:08.093Z,17.04
2022-09-15T07:20:08.081Z,17.1
2022-09-15T07:21:08.135Z,17.26
2022-09-15T07:22:08.448Z,17.43
2022-09-15T07:23:08.137Z,17.6
2022-09-15T07:24:11.079Z,17.7
2022-09-15T07:25:08.175Z,17.69
2022-09-15T07:26:08.059Z,17.54
2022-09-15T07:27:08.518Z,17.45
2022-09-15T07:28:08.137Z,17.38
2022-09-15T07:29:08.204Z,17.39
2022-09-15T07:30:08.469Z,17.41
2022-09-15T07:31:08.090Z,17.28
2022-09-15T07:32:08.579Z,17.19
2022-09-15T07:33:08.219Z,17.17
2022-09-15T07:34:08.207Z,17.19
2022-09-15T07:35:11.170Z,17.15
2022-09-15T07:36:08.147Z,17.07
2022-09-15T07:37:08.531Z,17.15
2022-09-15T07:38:08.209Z,17.13
2022-09-15T07:39:08.178Z,17.01
2022-09-15T07:40:08.299Z,16.81
2022-09-15T07:41:08.085Z,16.59
2022-09-15T07:42:08.057Z,16.45
2022-09-15T07:43:08.069Z,16.56
2022-09-15T07:44:08.201Z,16.65
2022-09-15T07:45:08.188Z,16.66
2022-09-15T07:46:11.222Z,16.71
2022-09-15T07:47:08.446Z,16.91
2022-09-15T07:48:08.243Z,16.93
2022-09-15T07:49:08.067Z,16.82
2022-09-15T07:50:08.074Z,17.05
2022-09-15T07:51:08.081Z,17.26
2022-09-15T07:52:08.450Z,17.52
2022-09-15T07:53:08.163Z,17.69
2022-09-15T07:54:08.211Z,17.69
2022-09-15T07:55:08.243Z,17.84
2022-09-15T07:56:08.183Z,17.69
2022-09-15T07:57:14.165Z,17.5
2022-09-15T07:58:08.148Z,17.51
2022-09-15T07:59:08.173Z,17.72
2022-09-15T08:00:08.530Z,17.97
2022-09-15T08:01:08.375Z,17.92
2022-09-15T08:02:08.568Z,17.77
2022-09-15T08:03:08.171Z,17.72
2022-09-15T08:04:08.189Z,17.6
2022-09-15T08:05:08.149Z,17.56
2022-09-15T08:06:08.086Z,17.77
2022-09-15T08:07:08.531Z,17.85
2022-09-15T08:08:11.207Z,17.9
2022-09-15T08:09:08.244Z,18.16
2022-09-15T08:10:08.067Z,18.45
2022-09-15T08:11:08.118Z,18.42
2022-09-15T08:12:08.543Z,18.45
2022-09-15T08:13:08.201Z,18.49
2022-09-15T08:14:08.208Z,18.29
2022-09-15T08:15:08.226Z,18.06
2022-09-15T08:16:08.247Z,17.97
2022-09-15T08:17:11.560Z,17.83
2022-09-15T08:18:08.266Z,17.7
2022-09-15T08:19:11.202Z,17.57
2022-09-15T08:20:08.175Z,17.53
2022-09-15T08:21:08.138Z,17.57
2022-09-15T08:22:08.533Z,17.72
2022-09-15T08:23:08.246Z,17.85
2022-09-15T08:24:08.173Z,17.99
2022-09-15T08:25:08.071Z,18.16
2022-09-15T08:26:13.073Z,18.25
2022-09-15T08:27:08.518Z,18.45
2022-09-15T08:28:08.160Z,18.55
2022-09-15T08:29:08.055Z,18.6
2022-09-15T08:30:14.118Z,18.35
2022-09-15T08:31:08.249Z,18.23
2022-09-15T08:32:08.547Z,18.39
2022-09-15T08:33:08.190Z,18.58
2022-09-15T08:34:08.057Z,18.64
2022-09-15T08:35:08.058Z,18.65
2022-09-15T08:36:08.052Z,18.66
2022-09-15T08:37:08.523Z,18.68
2022-09-15T08:38:08.294Z,18.66
2022-09-15T08:39:08.247Z,18.87
2022-09-15T08:40:08.214Z,18.93
2022-09-15T08:41:11.069Z,18.75
2022-09-15T08:42:08.459Z,18.92
2022-09-15T08:43:08.180Z,18.94
2022-09-15T08:44:08.142Z,18.82
2022-09-15T08:45:08.518Z,18.7
2022-09-15T08:46:08.316Z,18.85
2022-09-15T08:47:08.457Z,18.93
2022-09-15T08:48:08.096Z,18.69
2022-09-15T08:49:08.059Z,18.7
2022-09-15T08:50:08.059Z,19.02
2022-09-15T08:51:08.185Z,19.15
2022-09-15T08:52:14.155Z,19.16
2022-09-15T08:53:08.168Z,19.06
2022-09-15T08:54:08.068Z,19.24
2022-09-15T08:55:08.158Z,19.44
2022-09-15T08:56:10.028Z,19.54
2022-09-15T08:57:08.528Z,19.69
2022-09-15T08:58:08.175Z,19.62
2022-09-15T08:59:08.214Z,19.3
2022-09-15T09:00:08.453Z,19.34
2022-09-15T09:01:08.140Z,19.69
2022-09-15T09:02:08.608Z,20.01
2022-09-15T09:03:11.202Z,20.55
2022-09-15T09:04:08.210Z,20.61
2022-09-15T09:05:08.263Z,20.48
2022-09-15T09:06:08.146Z,20.46
2022-09-15T09:07:08.522Z,20.12
2022-09-15T09:08:08.264Z,19.8
2022-09-15T09:09:08.210Z,19.58
2022-09-15T09:10:08.195Z,19.46
2022-09-15T09:11:08.071Z,19.56
2022-09-15T09:12:08.534Z,19.48
2022-09-15T09:13:08.143Z,19.2
2022-09-15T09:14:11.141Z,19.16
2022-09-15T09:15:08.235Z,19.05
2022-09-15T09:16:08.111Z,18.98
2022-09-15T09:17:08.517Z,19.23
2022-09-15T09:18:08.237Z,19.19
2022-09-15T09:19:08.068Z,19.14
2022-09-15T09:20:08.259Z,19.3
2022-09-15T09:21:08.184Z,19.39
2022-09-15T09:22:08.447Z,19.59
2022-09-15T09:23:08.140Z,19.72
2022-09-15T09:24:08.213Z,19.78
2022-09-15T09:25:26.236Z,19.76
2022-09-15T09:26:10.513Z,19.9
2022-09-15T09:27:08.274Z,19.8
2022-09-15T09:28:08.189Z,19.7
2022-09-15T09:29:08.127Z,20
2022-09-15T09:30:08.523Z,20.31
2022-09-15T09:31:08.397Z,20.36
2022-09-15T09:32:08.517Z,20.14
2022-09-15T09:33:08.180Z,20.11
2022-09-15T09:34:08.099Z,20.24
2022-09-15T09:35:08.172Z,20.27
2022-09-15T09:36:11.108Z,20.48
2022-09-15T09:37:08.444Z,20.38
2022-09-15T09:38:08.145Z,20.47
2022-09-15T09:39:08.063Z,20.5
2022-09-15T09:40:08.311Z,20.56
2022-09-15T09:41:08.123Z,20.66
2022-09-15T09:42:08.449Z,20.8
2022-09-15T09:43:08.219Z,20.97
2022-09-15T09:44:08.270Z,20.99
2022-09-15T09:45:08.256Z,21.08
2022-09-15T09:46:08.269Z,21.06
2022-09-15T09:47:14.181Z,20.89
2022-09-15T09:48:08.193Z,20.99
2022-09-15T09:49:08.178Z,21.03
2022-09-15T09:50:08.191Z,21.29
2022-09-15T09:51:08.172Z,21.62
2022-09-15T09:52:08.625Z,21.74
2022-09-15T09:53:08.062Z,21.73
2022-09-15T09:54:08.200Z,21.74
2022-09-15T09:55:08.264Z,21.87
2022-09-15T09:56:08.071Z,21.87
2022-09-15T09:57:08.448Z,22.02
2022-09-15T09:58:11.130Z,22.19
2022-09-15T09:59:08.251Z,22.3
2022-09-15T10:00:08.526Z,22.45
2022-09-15T10:01:08.199Z,22.46
2022-09-15T10:02:08.521Z,22.48
2022-09-15T10:03:08.169Z,22.37
2022-09-15T10:04:08.089Z,22.54
2022-09-15T10:05:08.170Z,22.93
2022-09-15T10:06:08.161Z,23.31
2022-09-15T10:07:08.513Z,23.66
2022-09-15T10:08:08.298Z,23.71
2022-09-15T10:09:11.077Z,23.54
2022-09-15T10:10:08.278Z,23.39
2022-09-15T10:11:08.282Z,23.64
2022-09-15T10:12:08.138Z,23.79
2022-09-15T10:13:08.172Z,23.86
2022-09-15T10:14:08.174Z,24.54
2022-09-15T10:15:08.204Z,24.76
2022-09-15T10:16:08.187Z,25.05
2022-09-15T10:17:08.518Z,25.04
2022-09-15T10:18:08.308Z,25.12
2022-09-15T10:19:08.262Z,25.1
2022-09-15T10:20:11.061Z,25.23
2022-09-15T10:21:08.149Z,25.21
2022-09-15T10:22:08.526Z,24.99
2022-09-15T10:23:08.154Z,24.9
2022-09-15T10:24:08.061Z,25.23
2022-09-15T10:25:08.094Z,25.14
2022-09-15T10:26:08.181Z,24.74
2022-09-15T10:27:08.525Z,24.48
2022-09-15T10:28:08.245Z,24.13
2022-09-15T10:29:08.195Z,23.46
2022-09-15T10:30:08.442Z,23.08
2022-09-15T10:31:11.180Z,22.93
2022-09-15T10:32:08.586Z,22.91
2022-09-15T10:33:08.222Z,23.01
2022-09-15T10:34:08.182Z,23.04
2022-09-15T10:35:08.238Z,23.12
2022-09-15T10:36:08.183Z,23.29
2022-09-15T10:37:08.452Z,23.31
2022-09-15T10:38:08.170Z,23.18
2022-09-15T10:39:08.179Z,23.32
2022-09-15T10:40:08.190Z,23.34
2022-09-15T10:41:08.054Z,23.4
2022-09-15T10:42:14.607Z,23.35
2022-09-15T10:43:08.151Z,23.26
2022-09-15T10:44:08.181Z,23.15
2022-09-15T10:45:08.448Z,22.86
2022-09-15T10:46:08.224Z,22.43
2022-09-15T10:47:08.520Z,22.26
2022-09-15T10:48:08.183Z,22.19
2022-09-15T10:49:08.083Z,22.21
2022-09-15T10:50:08.103Z,22.15
2022-09-15T10:51:08.085Z,22.27
2022-09-15T10:52:08.523Z,22.41
2022-09-15T10:53:11.163Z,22.66
2022-09-15T10:54:08.245Z,22.8
2022-09-15T10:55:08.180Z,23
2022-09-15T10:56:08.093Z,23.29
2022-09-15T10:57:08.519Z,23.57
2022-09-15T10:58:08.279Z,23.82
2022-09-15T10:59:08.164Z,24.14
2022-09-15T11:00:08.519Z,24.36
2022-09-15T11:01:08.210Z,24.46
2022-09-15T11:02:08.573Z,24.45
2022-09-15T11:03:08.199Z,24.59
2022-09-15T11:04:11.220Z,24.93
2022-09-15T11:05:08.181Z,25.09
2022-09-15T11:06:08.074Z,25.28
2022-09-15T11:07:08.525Z,25.45
2022-09-15T11:08:08.262Z,25.3
2022-09-15T11:09:08.109Z,24.56
2022-09-15T11:10:08.089Z,23.9
2022-09-15T11:11:08.076Z,23.46
2022-09-15T11:12:08.522Z,23.39
2022-09-15T11:13:08.183Z,23.39
2022-09-15T11:14:08.208Z,23.29
2022-09-15T11:15:18.345Z,22.95
2022-09-15T11:16:08.369Z,22.7
2022-09-15T11:17:08.527Z,22.55
2022-09-15T11:18:08.150Z,22.44
2022-09-15T11:19:08.110Z,22.37
2022-09-15T11:20:08.108Z,22.1
2022-09-15T11:21:08.075Z,21.86
2022-09-15T11:22:08.091Z,21.78
2022-09-15T11:23:08.201Z,21.75
2022-09-15T11:24:08.146Z,21.74
2022-09-15T11:25:08.154Z,21.64
2022-09-15T11:26:11.100Z,21.56
2022-09-15T11:27:08.453Z,21.3
2022-09-15T11:28:08.165Z,21.14
2022-09-15T11:29:08.185Z,21.05
2022-09-15T11:30:08.258Z,20.98
2022-09-15T11:31:08.204Z,20.93
2022-09-15T11:32:08.455Z,21.05
2022-09-15T11:33:08.082Z,21.15
2022-09-15T11:34:08.082Z,21.24
2022-09-15T11:35:08.077Z,21.24
2022-09-15T11:36:08.175Z,21.16
2022-09-15T11:37:14.107Z,20.93
2022-09-15T11:38:12.803Z,20.72
2022-09-15T11:39:08.171Z,20.44
2022-09-15T11:40:08.316Z,20.38
2022-09-15T11:41:08.259Z,20.36
2022-09-15T11:42:08.458Z,20.38
2022-09-15T11:43:08.200Z,20.4
2022-09-15T11:44:08.190Z,20.45
2022-09-15T11:45:08.152Z,20.55
2022-09-15T11:46:08.205Z,20.67
2022-09-15T11:47:08.453Z,20.95
2022-09-15T11:48:11.202Z,21.09
2022-09-15T11:49:08.256Z,21.43
2022-09-15T11:50:08.365Z,21.75
2022-09-15T11:51:08.248Z,22.12
2022-09-15T11:52:08.507Z,22.46
2022-09-15T11:53:08.263Z,22.72
2022-09-15T11:54:08.064Z,23.02
2022-09-15T11:55:08.074Z,23.32
2022-09-15T11:56:08.606Z,23.37
2022-09-15T11:57:08.279Z,23.2
2022-09-15T11:58:08.162Z,23.34
2022-09-15T11:59:11.219Z,23.46
2022-09-15T12:00:08.433Z,23.58
2022-09-15T12:01:08.435Z,23.49
2022-09-15T12:02:08.326Z,22.98
2022-09-15T12:03:08.334Z,22.87
2022-09-15T12:04:08.286Z,22.94
2022-09-15T12:05:08.159Z,22.93
2022-09-15T12:06:08.512Z,22.7
2022-09-15T12:07:09.947Z,22.54
2022-09-15T12:08:08.171Z,22.5
2022-09-15T12:09:08.218Z,22.38
2022-09-15T12:10:11.088Z,22.29
2022-09-15T12:11:08.536Z,22.19
2022-09-15T12:12:08.130Z,22.01
2022-09-15T12:13:08.227Z,21.9
2022-09-15T12:14:08.157Z,21.84
2022-09-15T12:15:08.059Z,21.73
2022-09-15T12:16:08.458Z,21.75
2022-09-15T12:17:08.079Z,21.88
2022-09-15T12:18:27.293Z,22.05
2022-09-15T12:19:08.153Z,22.15
2022-09-15T12:20:08.082Z,22.23
2022-09-15T12:21:14.168Z,22.4
2022-09-15T12:22:08.185Z,22.55
2022-09-15T12:23:08.178Z,22.59
2022-09-15T12:24:08.243Z,22.49
2022-09-15T12:25:08.197Z,22.37
2022-09-15T12:26:08.504Z,22.1
2022-09-15T12:27:08.060Z,21.98
2022-09-15T12:28:08.088Z,21.91
2022-09-15T12:29:08.167Z,22.14
2022-09-15T12:30:08.075Z,22.32
2022-09-15T12:31:08.528Z,22.36
2022-09-15T12:32:11.186Z,22.41
2022-09-15T12:33:11.561Z,22.53
2022-09-15T12:34:08.281Z,22.79
2022-09-15T12:35:13.355Z,22.94
2022-09-15T12:36:08.508Z,23.06
2022-09-15T12:37:08.180Z,23.12
2022-09-15T12:38:08.081Z,23.14
2022-09-15T12:39:08.226Z,23.09
2022-09-15T12:40:08.223Z,22.96
2022-09-15T12:41:08.518Z,22.73
2022-09-15T12:42:08.224Z,22.26
2022-09-15T12:43:11.221Z,22.16
2022-09-15T12:44:08.259Z,22.02
2022-09-15T12:45:08.211Z,21.92
2022-09-15T12:46:08.466Z,21.79
2022-09-15T12:47:08.293Z,21.74
2022-09-15T12:48:08.269Z,21.61
2022-09-15T12:49:08.437Z,21.58
2022-09-15T12:50:08.167Z,21.51
2022-09-15T12:51:08.447Z,21.31
2022-09-15T12:52:08.259Z,21.32
2022-09-15T12:53:08.073Z,21.34
2022-09-15T12:54:11.128Z,21.39
2022-09-15T12:55:08.153Z,21.32